Time;durP1;ratioP1;P1;durP2;ratioP2;P2;SDS_P1;SDS_P2;PMS_P1;PMS_P2;Temp;Humidity;BMP_temperature;BMP_pressure;BME280_temperature;BME280_humidity;BME280_pressure;Samples;Min_cycle;Max_cycle;Signal;HPM_P1;HPM_P2
2023/01/08 00:01:54;;;;;;;2.23;1.67;;;;;;;10.83;60.33;98049.34;4993795;28;20595;-54
2023/01/08 00:04:21;;;;;;;2.23;1.70;;;;;;;10.81;60.27;98049.53;4996963;28;20228;-52
2023/01/08 00:06:47;;;;;;;2.60;1.50;;;;;;;10.82;59.62;98048.56;4995644;28;20242;-54
2023/01/08 00:09:15;;;;;;;2.67;1.87;;;;;;;10.91;59.07;98042.34;4997255;28;20234;-52
2023/01/08 00:11:43;;;;;;;2.87;1.77;;;;;;;10.91;59.67;98037.13;4995473;28;20242;-52
2023/01/08 00:14:10;;;;;;;3.47;1.70;;;;;;;10.92;59.57;98048.34;4995356;28;20282;-54
2023/01/08 00:16:37;;;;;;;2.87;1.80;;;;;;;10.95;59.44;98050.63;4994138;28;20254;-54
2023/01/08 00:19:04;;;;;;;3.87;1.83;;;;;;;10.97;59.53;98053.91;4999282;28;20240;-53
2023/01/08 00:21:30;;;;;;;3.20;2.00;;;;;;;10.97;59.90;98040.84;4992109;28;20226;-54
2023/01/08 00:23:57;;;;;;;2.63;1.90;;;;;;;11.04;59.98;98033.97;4995629;28;20288;-54
2023/01/08 00:26:23;;;;;;;2.47;1.90;;;;;;;11.03;59.42;98036.75;4994137;28;20223;-55
2023/01/08 00:28:53;;;;;;;5.23;2.03;;;;;;;10.99;59.87;98027.63;4996544;28;20691;-54
2023/01/08 00:31:19;;;;;;;2.80;1.60;;;;;;;10.99;59.95;98022.41;4994774;28;20232;-54
2023/01/08 00:33:46;;;;;;;3.63;1.93;;;;;;;10.97;59.60;98025.16;5011285;28;20231;-54
2023/01/08 00:36:15;;;;;;;2.87;1.60;;;;;;;10.95;59.89;98029.75;4993072;28;20742;-54
2023/01/08 00:38:42;;;;;;;3.77;1.60;;;;;;;11.01;59.20;98013.41;4996658;28;20237;-54
2023/01/08 00:41:09;;;;;;;3.30;2.00;;;;;;;11.02;59.20;98015.03;4992607;28;20238;-54
2023/01/08 00:43:36;;;;;;;3.67;1.97;;;;;;;10.97;59.72;98011.31;4997588;28;20307;-54
2023/01/08 00:46:04;;;;;;;4.03;1.80;;;;;;;10.92;59.73;98003.97;4994452;28;20240;-54
2023/01/08 00:48:32;;;;;;;2.37;1.80;;;;;;;10.86;60.37;98007.25;4997638;28;20223;-54
2023/01/08 00:51:02;;;;;;;4.37;2.00;;;;;;;10.75;61.05;97998.78;4993746;28;20298;-54
2023/01/08 00:53:29;;;;;;;2.70;1.57;;;;;;;10.67;61.05;98009.25;4996169;28;20332;-52
2023/01/08 00:56:00;;;;;;;2.80;1.93;;;;;;;10.59;62.34;98009.31;4994683;28;20313;-52
2023/01/08 00:58:26;;;;;;;2.40;1.50;;;;;;;10.51;61.94;98007.50;4994453;28;20598;-52
2023/01/08 01:00:53;;;;;;;3.17;1.80;;;;;;;10.48;61.06;98006.06;4993996;28;20570;-55
2023/01/08 01:03:21;;;;;;;5.30;1.90;;;;;;;10.49;61.90;98004.25;4994676;28;20323;-53
2023/01/08 01:05:48;;;;;;;3.43;1.70;;;;;;;10.54;61.41;98001.16;4996297;28;20285;-53
2023/01/08 01:08:15;;;;;;;2.63;1.67;;;;;;;10.70;60.69;98000.28;4993264;28;20246;-53
2023/01/08 01:10:42;;;;;;;3.53;1.73;;;;;;;10.64;60.89;98001.75;4995410;28;20697;-52
2023/01/08 01:13:08;;;;;;;2.73;1.50;;;;;;;10.54;60.89;98009.78;4992372;28;21566;-54
2023/01/08 01:15:35;;;;;;;3.57;1.80;;;;;;;10.53;61.32;97994.31;4995283;28;20233;-52
2023/01/08 01:18:01;;;;;;;2.70;1.70;;;;;;;10.47;61.39;97987.94;4993749;28;20238;-53
2023/01/08 01:20:29;;;;;;;4.03;1.70;;;;;;;10.48;62.24;97986.97;5011799;28;20242;-54
2023/01/08 01:22:56;;;;;;;3.23;1.70;;;;;;;10.57;61.52;97996.41;4992636;28;20245;-54
2023/01/08 01:25:22;;;;;;;3.13;1.80;;;;;;;10.56;61.76;97988.75;4995646;28;20226;-53
2023/01/08 01:27:49;;;;;;;3.00;1.63;;;;;;;10.56;61.09;97991.38;4996358;28;20231;-54
2023/01/08 01:30:16;;;;;;;2.43;1.70;;;;;;;10.60;60.30;97985.63;4992070;28;20258;-54
2023/01/08 01:32:42;;;;;;;2.93;1.50;;;;;;;10.63;60.52;97971.41;4993899;28;20713;-52
2023/01/08 01:35:09;;;;;;;4.93;1.80;;;;;;;10.63;60.92;97987.91;4991794;28;20229;-53
2023/01/08 01:37:37;;;;;;;3.97;1.60;;;;;;;10.71;60.81;97978.44;4996607;28;20233;-52
2023/01/08 01:40:05;;;;;;;4.20;1.80;;;;;;;10.71;59.96;97979.22;4993122;28;20296;-54
2023/01/08 01:42:40;;;;;;;2.50;1.97;;;;;;;10.67;60.30;97975.31;5012725;28;20292;-53
2023/01/08 01:45:16;;;;;;;3.30;1.67;;;;;;;10.67;60.94;97979.75;4993117;28;20668;-55
2023/01/08 01:47:45;;;;;;;2.20;1.73;;;;;;;10.68;60.65;97963.91;4995643;28;20233;-55
2023/01/08 01:50:14;;;;;;;2.67;1.90;;;;;;;10.67;61.20;97956.25;4991984;28;21094;-53
2023/01/08 01:52:46;;;;;;;3.13;1.63;;;;;;;10.70;61.33;97953.31;4994816;28;20353;-54
2023/01/08 01:55:14;;;;;;;5.43;1.80;;;;;;;10.74;60.01;97957.22;4992477;28;20238;-54
2023/01/08 01:57:48;;;;;;;2.23;1.73;;;;;;;10.76;60.81;97952.63;4995615;28;20246;-54
2023/01/08 02:00:15;;;;;;;3.10;2.07;;;;;;;10.77;60.84;97954.25;4993364;28;20277;-52
2023/01/08 02:02:42;;;;;;;5.60;1.90;;;;;;;10.84;59.74;97943.94;4993313;28;20223;-53
2023/01/08 02:05:09;;;;;;;3.10;1.87;;;;;;;10.76;60.02;97944.81;4990079;28;20244;-52
2023/01/08 02:07:43;;;;;;;5.03;1.77;;;;;;;10.74;60.66;97934.50;4996935;28;20227;-55
2023/01/08 02:10:16;;;;;;;4.03;1.80;;;;;;;10.74;60.82;97946.78;4993700;28;20284;-53
2023/01/08 02:12:47;;;;;;;3.60;1.70;;;;;;;10.71;60.52;97947.91;4995343;28;20635;-54
2023/01/08 02:15:20;;;;;;;3.00;1.73;;;;;;;10.67;60.65;97946.63;4992763;28;20730;-55
2023/01/08 02:17:53;;;;;;;3.43;1.80;;;;;;;10.62;61.38;97935.84;4993806;28;20243;-53
2023/01/08 02:20:24;;;;;;;4.13;2.07;;;;;;;10.62;61.18;97943.69;4990752;28;20242;-54
2023/01/08 02:23:08;;;;;;;3.30;1.80;;;;;;;10.63;60.76;97940.94;4996163;28;20768;-54
2023/01/08 02:26:06;;;;;;;3.97;1.70;;;;;;;10.67;60.57;97933.56;4995195;28;20227;-55
2023/01/08 02:28:37;;;;;;;2.80;1.80;;;;;;;10.74;59.69;97929.28;4993519;28;20239;-54
2023/01/08 02:31:05;;;;;;;4.33;1.57;;;;;;;10.75;59.89;97930.91;4992060;28;20233;-53
2023/01/08 02:33:32;;;;;;;3.37;1.73;;;;;;;10.82;60.27;97928.47;4992915;28;20260;-52
2023/01/08 02:36:21;;;;;;;5.00;1.77;;;;;;;10.83;59.53;97924.88;4991051;28;20329;-55
2023/01/08 02:38:59;;;;;;;3.83;2.10;;;;;;;10.89;59.42;97928.59;4992971;28;20226;-54
2023/01/08 02:41:36;;;;;;;4.47;1.90;;;;;;;10.86;59.76;97911.47;4993234;28;20247;-55
2023/01/08 02:44:08;;;;;;;2.73;1.60;;;;;;;10.96;59.57;97910.47;4990900;28;20226;-54
2023/01/08 02:46:37;;;;;;;4.97;1.60;;;;;;;10.86;59.34;97906.25;4994933;28;20233;-55
2023/01/08 02:49:07;;;;;;;4.03;1.80;;;;;;;10.82;59.59;97910.19;4990692;28;20239;-55
2023/01/08 02:51:39;;;;;;;5.67;1.73;;;;;;;10.82;59.48;97896.31;4995079;28;20233;-55
2023/01/08 02:54:11;;;;;;;3.43;1.70;;;;;;;10.84;59.76;97892.56;4991231;28;20748;-54
2023/01/08 02:56:43;;;;;;;4.00;1.60;;;;;;;10.85;60.28;97886.34;4993599;28;20710;-53
2023/01/08 02:59:12;;;;;;;5.37;1.50;;;;;;;10.84;58.72;97886.50;4993292;28;20229;-55
2023/01/08 03:01:40;;;;;;;2.30;1.60;;;;;;;10.93;59.56;97877.66;5009391;28;20246;-53
2023/01/08 03:04:13;;;;;;;3.83;1.80;;;;;;;10.90;58.48;97878.00;4990507;28;20786;-52
2023/01/08 03:06:40;;;;;;;1.40;1.20;;;;;;;10.89;58.80;97882.41;4992046;28;20375;-53
2023/01/08 03:09:07;;;;;;;4.87;1.50;;;;;;;10.88;59.22;97877.34;4992858;28;20899;-52
2023/01/08 03:11:40;;;;;;;3.10;1.70;;;;;;;10.89;59.62;97879.81;4995358;28;20242;-53
2023/01/08 03:14:11;;;;;;;2.10;1.57;;;;;;;10.90;59.32;97871.00;4990011;28;20296;-54
2023/01/08 03:16:45;;;;;;;3.17;1.60;;;;;;;10.91;59.30;97871.78;4995652;28;20238;-52
2023/01/08 03:19:41;;;;;;;1.83;1.23;;;;;;;10.90;60.48;97873.59;4887853;28;20337;-53
2023/01/08 03:22:11;;;;;;;4.70;2.17;;;;;;;10.85;60.04;97880.31;4998531;28;20671;-54
2023/01/08 03:24:41;;;;;;;2.03;1.47;;;;;;;10.83;61.14;97871.81;5000007;28;20242;-52
2023/01/08 03:27:14;;;;;;;2.33;1.50;;;;;;;10.80;59.55;97869.56;4998879;28;20595;-54
2023/01/08 03:29:42;;;;;;;4.27;1.50;;;;;;;10.83;60.45;97877.06;4999897;28;20663;-53
2023/01/08 03:32:13;;;;;;;2.83;1.67;;;;;;;10.86;58.83;97872.31;4994643;28;20229;-54
2023/01/08 03:34:43;;;;;;;3.10;1.50;;;;;;;10.89;59.72;97878.97;4998684;28;20313;-53
2023/01/08 03:37:12;;;;;;;2.93;1.40;;;;;;;10.90;58.85;97872.78;5014887;28;20266;-54
2023/01/08 03:39:43;;;;;;;5.07;1.77;;;;;;;10.86;60.27;97882.75;5000878;28;20657;-55
2023/01/08 03:42:13;;;;;;;2.90;1.60;;;;;;;10.82;59.28;97876.25;4994708;28;20285;-54
2023/01/08 03:44:41;;;;;;;1.87;1.40;;;;;;;10.94;58.06;97881.88;4998514;28;20239;-53
2023/01/08 03:47:10;;;;;;;4.53;1.60;;;;;;;10.99;59.12;97882.19;4994065;28;20238;-52
2023/01/08 03:49:38;;;;;;;5.70;1.63;;;;;;;10.95;59.43;97893.97;5012017;28;20322;-54
2023/01/08 03:52:05;;;;;;;2.07;1.67;;;;;;;10.87;62.14;97894.81;4998488;28;20242;-54
2023/01/08 03:54:33;;;;;;;4.10;1.70;;;;;;;10.82;63.54;97893.69;4998069;28;20242;-53
2023/01/08 03:57:00;;;;;;;4.23;1.60;;;;;;;10.74;64.00;97902.41;4996692;28;20238;-54
2023/01/08 03:59:27;;;;;;;4.17;1.60;;;;;;;10.63;66.19;97898.34;4999143;28;20234;-54
2023/01/08 04:01:55;;;;;;;3.17;1.83;;;;;;;10.51;66.62;97903.13;4995979;28;20238;-54
2023/01/08 04:04:21;;;;;;;4.70;1.57;;;;;;;10.44;68.29;97903.00;4998619;28;20231;-53
2023/01/08 04:06:48;;;;;;;2.30;1.67;;;;;;;10.36;71.14;97902.97;5002366;28;20223;-53
2023/01/08 04:09:15;;;;;;;3.07;1.60;;;;;;;10.24;72.63;97905.13;4998384;28;20230;-55
2023/01/08 04:11:41;;;;;;;3.37;1.40;;;;;;;10.26;72.53;97904.97;4995408;28;20639;-52
2023/01/08 04:14:08;;;;;;;3.43;2.00;;;;;;;10.07;74.93;97903.53;4994618;28;21199;-54
2023/01/08 04:16:35;;;;;;;3.10;1.60;;;;;;;9.95;76.60;97895.22;4996692;28;20235;-54
2023/01/08 04:19:03;;;;;;;3.00;1.60;;;;;;;9.86;76.65;97899.66;4999727;28;20230;-53
2023/01/08 04:21:29;;;;;;;3.53;1.80;;;;;;;9.79;76.34;97907.28;5014840;28;20817;-55
2023/01/08 04:23:56;;;;;;;5.37;1.60;;;;;;;9.77;76.98;97898.03;4994954;28;20241;-54
2023/01/08 04:26:23;;;;;;;2.73;1.70;;;;;;;9.69;79.34;97897.03;5002861;28;20234;-54
2023/01/08 04:28:50;;;;;;;4.67;1.57;;;;;;;9.64;81.08;97898.50;4996968;28;20238;-53
2023/01/08 04:31:16;;;;;;;3.53;1.53;;;;;;;9.60;80.83;97895.41;5180593;22;20261;-59
2023/01/08 04:33:43;;;;;;;5.80;1.93;;;;;;;9.56;82.10;97888.91;5005578;28;20665;-60
2023/01/08 04:36:11;;;;;;;3.40;1.97;;;;;;;9.51;84.03;97901.59;5005754;28;20231;-59
2023/01/08 04:38:37;;;;;;;3.23;1.40;;;;;;;9.48;82.98;97910.56;5006351;28;20224;-59
2023/01/08 04:41:04;;;;;;;7.53;2.10;;;;;;;9.38;87.19;97897.66;5003803;28;20284;-59
2023/01/08 04:43:31;;;;;;;3.20;1.83;;;;;;;9.32;88.08;97908.72;5006864;28;20761;-59
2023/01/08 04:45:58;;;;;;;3.00;1.47;;;;;;;9.29;86.39;97890.81;5004227;28;20272;-58
2023/01/08 04:48:25;;;;;;;5.17;1.80;;;;;;;9.29;87.78;97890.81;5005211;28;20234;-60
2023/01/08 04:50:52;;;;;;;3.57;1.97;;;;;;;9.25;89.14;97895.56;5006872;28;20222;-60
2023/01/08 04:53:20;;;;;;;4.70;1.90;;;;;;;9.19;89.53;97892.75;5003498;28;20628;-60
2023/01/08 04:55:46;;;;;;;2.70;1.87;;;;;;;9.10;92.42;97897.16;5005544;28;20229;-58
2023/01/08 04:58:13;;;;;;;3.30;1.80;;;;;;;9.07;92.54;97897.47;5003073;28;20299;-59
2023/01/08 05:00:40;;;;;;;2.80;1.50;;;;;;;8.98;94.04;97900.03;5005479;28;20244;-59
2023/01/08 05:03:07;;;;;;;3.90;1.63;;;;;;;8.97;94.25;97892.41;5003283;28;20283;-59
2023/01/08 05:05:34;;;;;;;3.77;2.07;;;;;;;8.92;94.48;97882.44;5006358;28;20237;-59
2023/01/08 05:08:01;;;;;;;2.63;1.67;;;;;;;8.92;94.88;97882.44;5003760;28;20227;-60
2023/01/08 05:10:29;;;;;;;4.13;1.60;;;;;;;8.87;94.97;97879.50;5005672;28;20303;-60
2023/01/08 05:12:58;;;;;;;2.43;1.60;;;;;;;8.87;96.58;97892.53;5002440;28;20285;-60
2023/01/08 05:15:25;;;;;;;3.03;1.60;;;;;;;8.83;95.82;97876.41;5006230;28;20255;-60
2023/01/08 05:17:58;;;;;;;1.97;1.10;;;;;;;8.83;95.93;97873.00;5006595;28;20248;-60
2023/01/08 05:20:24;;;;;;;1.70;1.10;;;;;;;8.84;94.99;97872.84;5003907;28;20700;-59
2023/01/08 05:22:51;;;;;;;2.60;1.10;;;;;;;8.81;94.90;97873.16;5006111;28;20263;-59
2023/01/08 05:25:18;;;;;;;1.20;1.00;;;;;;;8.81;95.11;97862.75;5003408;28;20713;-59
2023/01/08 05:27:46;;;;;;;1.37;0.90;;;;;;;8.79;95.49;97856.06;5006181;28;20700;-59
2023/01/08 05:30:13;;;;;;;3.07;1.10;;;;;;;8.79;94.40;97858.66;5003120;28;20710;-59
2023/01/08 05:32:39;;;;;;;2.30;1.20;;;;;;;8.79;95.81;97864.69;5005241;28;20902;-60
2023/01/08 05:35:07;;;;;;;2.30;1.13;;;;;;;8.76;95.74;97865.00;5003232;28;20722;-60
2023/01/08 05:37:34;;;;;;;1.57;1.10;;;;;;;8.76;95.02;97866.78;5006218;28;20824;-60
2023/01/08 05:40:01;;;;;;;2.17;1.00;;;;;;;8.79;93.01;97861.25;5002839;28;20223;-60
2023/01/08 05:42:27;;;;;;;1.13;0.80;;;;;;;8.76;96.05;97864.19;5004815;28;20246;-59
2023/01/08 05:44:55;;;;;;;2.00;0.93;;;;;;;8.76;95.61;97861.59;5002737;28;20251;-59
2023/01/08 05:47:22;;;;;;;1.30;0.80;;;;;;;8.73;95.58;97877.50;5005469;28;20288;-60
2023/01/08 05:49:48;;;;;;;1.10;0.90;;;;;;;8.74;94.28;97860.94;5005718;28;20755;-59
2023/01/08 05:52:15;;;;;;;2.63;1.00;;;;;;;8.70;95.04;97865.66;5002871;28;20246;-60
2023/01/08 05:54:41;;;;;;;3.30;1.40;;;;;;;8.71;95.28;97856.88;5005733;28;20237;-60
2023/01/08 05:57:08;;;;;;;2.50;1.70;;;;;;;8.70;94.96;97850.84;5002758;28;20237;-60
2023/01/08 05:59:34;;;;;;;4.27;1.23;;;;;;;8.73;95.35;97851.50;5005871;28;20225;-60
2023/01/08 06:02:02;;;;;;;2.60;1.20;;;;;;;8.76;94.57;97858.97;5003623;28;20242;-59
2023/01/08 06:04:29;;;;;;;2.00;1.40;;;;;;;8.78;94.72;97857.88;5005765;28;20242;-59
2023/01/08 06:06:55;;;;;;;2.50;1.80;;;;;;;8.78;94.21;97849.22;5002027;28;20304;-59
2023/01/08 06:09:22;;;;;;;3.20;1.50;;;;;;;8.80;95.37;97853.31;5006173;28;20265;-60
2023/01/08 06:11:48;;;;;;;3.90;1.37;;;;;;;8.82;94.79;97856.56;5003898;28;20468;-61
2023/01/08 06:14:15;;;;;;;2.77;1.67;;;;;;;8.81;95.49;97861.94;5002501;28;20677;-59
2023/01/08 06:16:43;;;;;;;3.57;1.60;;;;;;;8.81;94.86;97856.72;5005490;28;20237;-60
2023/01/08 06:19:11;;;;;;;2.63;1.63;;;;;;;8.82;95.66;97866.16;5002377;28;20283;-60
2023/01/08 06:21:38;;;;;;;6.13;3.57;;;;;;;8.83;96.01;97839.16;5005744;28;20230;-59
2023/01/08 06:24:05;;;;;;;3.50;1.80;;;;;;;8.84;94.99;97841.63;5002225;28;20233;-60
2023/01/08 06:26:32;;;;;;;4.30;2.10;;;;;;;8.85;95.09;97858.88;5006616;28;20225;-60
2023/01/08 06:28:58;;;;;;;4.93;2.10;;;;;;;8.87;94.46;97850.88;5001951;28;20283;-60
2023/01/08 06:31:25;;;;;;;3.10;1.60;;;;;;;8.83;96.34;97858.22;5005636;28;20232;-60
2023/01/08 06:33:51;;;;;;;2.50;1.40;;;;;;;8.83;95.35;97844.38;5004887;28;20659;-60
2023/01/08 06:36:19;;;;;;;4.37;1.47;;;;;;;8.81;96.25;97856.72;5002785;28;20628;-60
2023/01/08 06:38:46;;;;;;;2.90;1.80;;;;;;;8.82;96.05;97834.94;5003542;28;20621;-61
2023/01/08 06:41:12;;;;;;;3.13;1.80;;;;;;;8.81;96.22;97851.50;5002163;28;20858;-60
2023/01/08 06:43:39;;;;;;;4.43;1.77;;;;;;;8.80;96.69;97852.50;5004550;28;20236;-61
2023/01/08 06:46:07;;;;;;;2.83;1.67;;;;;;;8.79;96.34;97843.06;5001875;28;20238;-60
2023/01/08 06:48:34;;;;;;;4.57;3.60;;;;;;;8.79;95.29;97856.88;5004357;28;20230;-60
2023/01/08 06:51:01;;;;;;;2.33;1.80;;;;;;;8.79;95.53;97838.69;5002426;28;20241;-60
2023/01/08 06:53:29;;;;;;;4.87;1.40;;;;;;;8.87;93.93;97848.28;5004492;28;20233;-60
2023/01/08 06:55:57;;;;;;;3.67;1.90;;;;;;;8.82;96.23;97845.34;5001894;28;20234;-60
2023/01/08 06:58:24;;;;;;;2.23;1.27;;;;;;;8.77;97.87;97848.44;5005144;28;20234;-60
2023/01/08 07:00:51;;;;;;;1.47;1.20;;;;;;;8.78;97.30;97852.66;5005006;28;20230;-59
2023/01/08 07:03:17;;;;;;;3.77;1.60;;;;;;;8.78;96.41;97838.81;5001913;28;20311;-60
2023/01/08 07:05:44;;;;;;;2.57;1.80;;;;;;;8.76;97.92;97838.16;5005088;28;20240;-60
2023/01/08 07:08:11;;;;;;;3.30;2.00;;;;;;;8.78;95.76;97838.81;5001448;28;20679;-60
2023/01/08 07:10:39;;;;;;;1.73;1.30;;;;;;;8.77;96.76;97843.22;5004309;28;20284;-60
2023/01/08 07:13:06;;;;;;;1.73;1.10;;;;;;;8.75;95.09;97839.97;5001783;28;20253;-60
2023/01/08 07:15:33;;;;;;;3.80;1.30;;;;;;;8.80;95.26;97845.50;5004326;28;20229;-60
2023/01/08 07:17:59;;;;;;;2.47;1.10;;;;;;;8.79;95.18;97850.84;5001844;28;20244;-60
2023/01/08 07:20:26;;;;;;;1.33;1.23;;;;;;;8.79;95.73;97837.84;5009322;28;20691;-60
2023/01/08 07:22:53;;;;;;;2.57;1.30;;;;;;;8.81;96.11;97852.34;5004824;28;20239;-60
2023/01/08 07:25:19;;;;;;;1.33;1.00;;;;;;;8.81;94.26;97848.91;5002628;28;20238;-61
2023/01/08 07:27:49;;;;;;;1.87;1.00;;;;;;;8.81;95.58;97856.72;5005449;28;20233;-60
2023/01/08 07:30:15;;;;;;;2.00;1.20;;;;;;;8.81;95.49;97861.94;5002280;28;20925;-60
2023/01/08 07:32:42;;;;;;;2.37;1.10;;;;;;;8.78;95.49;97862.25;5004913;28;20307;-60
2023/01/08 07:35:09;;;;;;;3.37;1.17;;;;;;;8.76;96.97;97858.97;5001991;28;20233;-60
2023/01/08 07:37:39;;;;;;;2.47;1.17;;;;;;;8.80;95.85;97842.09;5003155;28;21197;-60
2023/01/08 07:40:07;;;;;;;1.40;1.10;;;;;;;8.78;94.68;97855.25;5001788;28;20743;-60
2023/01/08 07:42:34;;;;;;;1.10;1.00;;;;;;;8.78;94.54;97860.47;5004553;28;20236;-60
2023/01/08 07:45:02;;;;;;;1.37;0.90;;;;;;;8.80;96.31;97857.69;5001865;28;20240;-60
2023/01/08 07:47:28;;;;;;;3.13;1.03;;;;;;;8.75;95.96;97858.19;5004528;28;20236;-60
2023/01/08 07:49:55;;;;;;;3.23;1.00;;;;;;;8.77;94.95;97869.25;5001246;28;20315;-59
2023/01/08 07:52:22;;;;;;;2.97;2.50;;;;;;;8.78;95.80;97859.63;5003864;28;20239;-60
2023/01/08 07:54:48;;;;;;;4.47;1.60;;;;;;;8.71;95.86;97862.88;5004461;28;20315;-60
2023/01/08 07:57:15;;;;;;;8.33;4.23;;;;;;;8.75;95.51;97855.56;5001649;28;20234;-59
2023/01/08 07:59:41;;;;;;;3.37;2.33;;;;;;;8.72;96.75;97855.91;5004616;28;20238;-60
2023/01/08 08:02:10;;;;;;;3.13;2.10;;;;;;;8.74;96.37;97866.13;5000729;28;20437;-59
2023/01/08 08:04:37;;;;;;;3.37;2.87;;;;;;;8.78;94.20;97846.63;5005860;28;20664;-59
2023/01/08 08:07:04;;;;;;;4.13;3.60;;;;;;;8.78;96.72;97847.47;5005051;28;20230;-59
2023/01/08 08:09:30;;;;;;;2.20;1.70;;;;;;;8.75;96.86;97834.75;5007770;28;20241;-59
2023/01/08 08:11:57;;;;;;;1.93;1.73;;;;;;;8.73;96.01;97846.28;5003347;28;20296;-58
2023/01/08 08:14:23;;;;;;;1.47;1.03;;;;;;;8.74;96.57;97845.31;5007304;28;20303;-58
2023/01/08 08:16:50;;;;;;;3.07;1.20;;;;;;;8.73;96.33;97847.13;5007289;28;20233;-58
2023/01/08 08:19:18;;;;;;;1.50;1.27;;;;;;;8.74;96.34;97848.75;5020241;28;20296;-59
2023/01/08 08:21:44;;;;;;;1.33;0.70;;;;;;;8.77;95.02;97856.22;5006858;28;20273;-58
2023/01/08 08:24:11;;;;;;;0.97;0.83;;;;;;;8.76;96.54;97844.19;5004529;28;20228;-58
2023/01/08 08:26:38;;;;;;;2.37;1.10;;;;;;;8.75;97.37;97845.16;5007249;28;20229;-58
2023/01/08 08:29:04;;;;;;;2.17;1.00;;;;;;;8.77;95.27;97851.03;5004456;28;20238;-59
2023/01/08 08:31:31;;;;;;;3.43;0.83;;;;;;;8.78;96.38;97844.03;5007475;28;20233;-59
2023/01/08 08:33:57;;;;;;;8.80;7.90;;;;;;;8.80;95.16;97844.69;5004123;28;20253;-59
2023/01/08 08:36:29;;;;;;;2.63;2.33;;;;;;;8.85;93.60;97840.66;5006039;28;20226;-58
2023/01/08 08:38:55;;;;;;;1.80;1.00;;;;;;;8.80;95.47;97853.31;5004232;28;20238;-59
2023/01/08 08:41:22;;;;;;;2.17;1.20;;;;;;;8.78;96.86;97846.63;5007317;28;20229;-59
2023/01/08 08:43:50;;;;;;;2.43;1.20;;;;;;;8.76;96.47;97852.00;5007079;28;20232;-59
2023/01/08 08:46:17;;;;;;;1.30;0.70;;;;;;;8.77;95.29;97856.22;5004593;28;20229;-59
2023/01/08 08:48:44;;;;;;;1.43;0.93;;;;;;;8.79;95.97;97853.47;5007337;28;20689;-59
2023/01/08 08:51:10;;;;;;;3.03;2.20;;;;;;;8.82;95.46;97850.53;5004044;28;20295;-59
2023/01/08 08:53:38;;;;;;;1.17;1.03;;;;;;;8.85;93.91;97860.63;5007862;28;20324;-59
2023/01/08 08:56:05;;;;;;;1.50;0.93;;;;;;;8.89;96.58;97848.94;5004245;28;20233;-60
2023/01/08 08:58:32;;;;;;;1.33;1.03;;;;;;;8.87;95.30;97853.47;5007625;28;20238;-60
2023/01/08 09:01:02;;;;;;;1.10;0.70;;;;;;;8.82;95.46;97855.75;5004313;28;20814;-59
2023/01/08 09:03:29;;;;;;;1.30;1.10;;;;;;;8.83;96.86;97858.22;5007942;28;20636;-60
2023/01/08 09:05:56;;;;;;;1.80;1.00;;;;;;;8.85;96.13;97864.06;5004844;28;20686;-60
2023/01/08 09:08:22;;;;;;;1.50;0.60;;;;;;;8.86;97.47;97852.69;5007875;28;20608;-60
2023/01/08 09:10:50;;;;;;;1.67;1.20;;;;;;;8.85;98.55;97863.25;5007257;28;20234;-60
2023/01/08 09:13:17;;;;;;;2.20;1.00;;;;;;;8.82;97.58;97867.00;5004432;28;20244;-60
2023/01/08 09:15:44;;;;;;;1.83;1.07;;;;;;;8.81;98.70;97870.56;5007078;28;20303;-60
2023/01/08 09:18:10;;;;;;;1.93;1.17;;;;;;;8.85;96.99;97876.25;5004789;28;20228;-59
2023/01/08 09:20:37;;;;;;;2.07;0.80;;;;;;;8.72;99.31;97871.50;5006667;28;20435;-59
2023/01/08 09:23:04;;;;;;;2.03;1.10;;;;;;;8.69;100.00;97872.63;5004218;28;20292;-60
2023/01/08 09:25:31;;;;;;;1.47;0.90;;;;;;;8.68;100.00;97880.59;5006272;28;20572;-59
2023/01/08 09:28:04;;;;;;;3.13;1.07;;;;;;;8.67;100.00;97889.38;5004155;28;20233;-60
2023/01/08 09:30:31;;;;;;;2.20;1.17;;;;;;;8.69;98.51;97882.22;5006341;28;20764;-60
2023/01/08 09:32:58;;;;;;;1.27;0.80;;;;;;;8.76;99.98;97890.22;5003489;28;20245;-59
2023/01/08 09:35:25;;;;;;;2.10;1.23;;;;;;;8.75;100.00;97888.56;5005944;28;20585;-60
2023/01/08 09:37:51;;;;;;;2.77;1.17;;;;;;;8.74;100.00;97892.16;5004667;28;20698;-59
2023/01/08 09:40:19;;;;;;;1.40;1.13;;;;;;;8.77;100.00;97891.84;5003439;28;20237;-58
2023/01/08 09:42:53;;;;;;;1.57;1.00;;;;;;;8.75;100.00;97894.59;5006234;28;20233;-57
2023/01/08 09:45:26;;;;;;;2.33;1.10;;;;;;;8.77;100.00;97891.84;5003439;28;20717;-59
2023/01/08 09:47:54;;;;;;;2.10;1.30;;;;;;;8.77;100.00;97899.63;5006459;28;20275;-59
2023/01/08 09:50:25;;;;;;;2.77;1.20;;;;;;;8.62;100.00;97894.22;5003735;28;20303;-59
2023/01/08 09:52:52;;;;;;;3.20;1.33;;;;;;;8.64;100.00;97884.47;5006040;28;20253;-59
2023/01/08 09:55:20;;;;;;;1.43;1.00;;;;;;;8.71;98.41;97881.09;5003969;28;20232;-60
2023/01/08 09:57:48;;;;;;;2.33;1.10;;;;;;;8.80;98.57;97865.50;5006040;28;20230;-59
2023/01/08 10:00:17;;;;;;;2.60;1.27;;;;;;;8.80;99.66;97874.13;5003283;28;20242;-60
2023/01/08 10:02:45;;;;;;;3.07;1.77;;;;;;;8.86;100.00;97872.69;5005839;28;20702;-60
2023/01/08 10:05:14;;;;;;;3.73;2.07;;;;;;;8.83;100.00;97866.00;5002583;28;20245;-59
2023/01/08 10:07:40;;;;;;;2.57;1.50;;;;;;;8.92;100.00;97871.25;5004284;28;20234;-59
2023/01/08 10:10:18;;;;;;;2.93;1.77;;;;;;;9.01;100.00;97865.88;5001974;28;20831;-60
2023/01/08 10:12:45;;;;;;;2.17;1.10;;;;;;;9.08;97.76;97860.84;5005641;28;20238;-60
2023/01/08 10:15:15;;;;;;;2.03;1.33;;;;;;;9.06;100.00;97860.19;5002700;28;20225;-59
2023/01/08 10:17:48;;;;;;;1.93;1.10;;;;;;;9.05;99.48;97868.16;5005369;28;20230;-59
2023/01/08 10:20:18;;;;;;;1.57;0.87;;;;;;;9.07;97.08;97867.03;5002490;28;20250;-63
2023/01/08 10:22:46;;;;;;;1.90;1.37;;;;;;;9.14;97.44;97849.00;5005526;28;20239;-58
2023/01/08 10:25:15;;;;;;;1.53;1.03;;;;;;;9.14;96.37;97862.00;5002782;28;20224;-58
2023/01/08 10:27:47;;;;;;;0.97;0.77;;;;;;;9.16;96.06;97847.03;5005386;28;20694;-58
2023/01/08 10:30:19;;;;;;;3.07;1.10;;;;;;;9.28;98.23;97845.75;5003197;28;20258;-58
2023/01/08 10:32:51;;;;;;;1.53;1.00;;;;;;;9.46;96.15;97852.59;5005967;28;20233;-59
2023/01/08 10:35:21;;;;;;;2.73;0.83;;;;;;;9.49;97.19;97841.84;5000245;28;20229;-59
2023/01/08 10:37:49;;;;;;;1.53;0.73;;;;;;;9.50;93.85;97848.69;5005326;28;20291;-58
2023/01/08 10:40:28;;;;;;;1.93;0.60;;;;;;;9.55;92.70;97846.38;5002802;28;20259;-59
2023/01/08 10:42:56;;;;;;;1.67;0.80;;;;;;;9.58;92.93;97840.03;5002719;28;20749;-59
2023/01/08 10:45:24;;;;;;;1.03;0.60;;;;;;;9.57;92.81;97834.00;5004991;28;20292;-59
2023/01/08 10:47:57;;;;;;;1.50;0.50;;;;;;;9.66;91.10;97820.97;5005593;28;20250;-59
2023/01/08 10:50:27;;;;;;;0.80;0.40;;;;;;;9.67;90.02;97818.22;5002518;28;20314;-59
2023/01/08 10:52:55;;;;;;;2.67;0.80;;;;;;;9.75;90.20;97818.22;5002359;28;20859;-59
2023/01/08 10:55:24;;;;;;;1.33;0.70;;;;;;;9.82;88.76;97797.50;5005324;28;20317;-59
2023/01/08 10:57:56;;;;;;;4.60;2.23;;;;;;;9.79;88.08;97787.41;5005665;28;20224;-59
2023/01/08 11:00:26;;;;;;;30.17;19.40;;;;;;;9.63;87.13;97784.81;5002618;28;20578;-59
2023/01/08 11:02:54;;;;;;;1.80;0.50;;;;;;;9.52;85.68;97771.19;5003890;28;20324;-58
2023/01/08 11:05:29;;;;;;;2.10;0.50;;;;;;;9.51;86.70;97766.13;5002214;28;20291;-59
2023/01/08 11:07:58;;;;;;;1.83;0.87;;;;;;;9.45;86.72;97770.22;5002467;28;20236;-59
2023/01/08 11:10:27;;;;;;;1.53;0.87;;;;;;;9.38;85.35;97754.41;5004274;28;20239;-59
2023/01/08 11:12:58;;;;;;;0.53;0.43;;;;;;;9.32;86.43;97736.03;5005002;28;20241;-58
2023/01/08 11:15:34;;;;;;;0.67;0.40;;;;;;;9.37;85.73;97744.19;5002643;28;20569;-58
2023/01/08 11:18:11;;;;;;;1.00;0.70;;;;;;;9.54;86.08;97743.16;5001225;28;20315;-58
2023/01/08 11:20:40;;;;;;;0.80;0.70;;;;;;;9.65;84.81;97742.00;5004757;28;20566;-59
2023/01/08 11:23:15;;;;;;;3.47;1.10;;;;;;;9.70;86.42;97733.66;5000257;28;20234;-58
2023/01/08 11:25:44;;;;;;;3.67;2.00;;;;;;;9.84;84.03;97724.34;5004136;28;20241;-59
2023/01/08 11:28:19;;;;;;;1.40;1.27;;;;;;;9.81;83.42;97720.28;5001500;28;20772;-59
2023/01/08 11:30:53;;;;;;;2.53;1.80;;;;;;;9.82;83.67;97711.47;5003901;28;20232;-59
2023/01/08 11:33:28;;;;;;;0.70;0.50;;;;;;;9.93;83.95;97696.47;5001941;28;20243;-59
2023/01/08 11:36:02;;;;;;;1.30;0.70;;;;;;;9.84;84.71;97693.09;5001577;28;20230;-59
2023/01/08 11:38:29;;;;;;;0.77;0.47;;;;;;;9.78;85.19;97693.75;5006309;28;20240;-58
2023/01/08 11:41:10;;;;;;;0.93;0.40;;;;;;;10.01;83.92;97694.66;5005492;28;20622;-59
2023/01/08 11:43:48;;;;;;;1.13;0.70;;;;;;;9.98;83.79;97689.78;5008150;28;20621;-59
2023/01/08 11:46:32;;;;;;;1.40;1.00;;;;;;;9.92;84.01;97689.63;5005920;28;20252;-59